Main page
METAR-TAF:

METAR-TAF

Airports :

Rota, Spain

Naval Station Rota

latitude: 36-39N, longitude: 006-21W, elevation: 26 m

Current weather observation

The report was made 1 hour and 9 minutes ago, at 01:00 UTC
Wind 3 kt from the Southwest
Temperature 19°C
Humidity 88%
Pressure 1017 hPa
Visibility 10 km or more
Scattered clouds at a height of 1800 ft

METAR: LERT 290100Z 22003KT 9999 SCT018 19/17 Q1017 NOSIG

Time: 04:09 (02:09 UTC)

Forecast

The report was made 3 hours and 9 minutes ago, at 23:00 UTC
Forecast valid from 29 at 00 UTC to 29 at 09 UTC
Wind 6 kt from the West/Southwest
Visibility 10 km or more
Scattered clouds at a height of 2000 ft
Probability 40% :
Temporary
from 29 at 00 UTC to 29 at 09 UTC
Broken clouds at a height of 1200 ft

TAF: LERT 282300Z 2900/2909 25006KT 9999 SCT020 PROB40 TEMPO 2900/2909 BKN012

Weather observations and forecasts of more than 4000 airports (METAR and TAF reports).

The available stations are represented by yellow and red dots on the map.

Hover mouse over dot to see the name of the station.

Then click to see weather observations and forecasts.

To change the map : click on the green buttons with a black cross to zoom in, on the green button with a dash to zoom out, or on the green arrows for adjacent maps.


METAR-TAF: